EDVK Airport Information

Runway Information
Runway 04 Length 4921 ft width 98 ft
Elevation 898 ft Threshold ft Heading 41
Runway 22 Length 4921 ft Width 98 ft
Elevation 872 ft Threshold ft Heading 221
Runway 04L Length 2297 ft width 98 ft
Elevation ft Threshold ft Heading 41
Runway 22R Length 2297 ft Width 98 ft
Elevation ft Threshold ft Heading 221
Runway 09 Length 8202 ft width 147 ft
Elevation 861 ft Threshold ft Heading 93
Runway 27 Length 8202 ft Width 147 ft
Elevation 803 ft Threshold ft Heading 273
Airport Frequencies
Type INFO Name BREMEN INF Frequency 119.825 MHZ
Type RDR Name BREMEN RAD Frequency 123.925 MHZ
Type TWR Name TWR Frequency 118.1 MHZ
Airport Navaids
Type NDB Name Kassel Frequency 349 KHZ
Airport Weather Information & NOTAM
ADDS - METARS form results

(1515 UTC 05 October 2022)
Data provider http://aviationweather.gov/metar/data/
 
METAR text: EDVK 051450Z 18010KT 9999 FEW024 18/12 Q1016
Conditions at: EDVK (KASSEL/CALDEN , DE) observed 1450 UTC 05 October 2022
Temperature: 18.0°C (64°F)
Dewpoint: 12.0°C (54°F) [RH = 68%]
Pressure (altimeter): 30.00 inches Hg (1016.0 mb)
Winds: from the S (180 degrees) at 12 MPH (10 knots; 5.1 m/s)
Visibility: 6 or more miles (10+ km)
Ceiling: at least 12,000 feet AGL
Clouds: few clouds at 2400 feet AGL
Weather: no significant weather observed at this time

METAR text: EDVK 051420Z 17010KT 9999 FEW030 17/11 Q1016
Conditions at: EDVK (KASSEL/CALDEN , DE) observed 1420 UTC 05 October 2022
Temperature: 17.0°C (63°F)
Dewpoint: 11.0°C (52°F) [RH = 68%]
Pressure (altimeter): 30.00 inches Hg (1016.0 mb)
Winds: from the S (170 degrees) at 12 MPH (10 knots; 5.1 m/s)
Visibility: 6 or more miles (10+ km)
Ceiling: at least 12,000 feet AGL
Clouds: few clouds at 3000 feet AGL
Weather: no significant weather observed at this time

Forecast for: EDVK (KASSEL/CALDEN , DE)
Text: TAF EDVK 051400Z 0515/0524 19010KT 9999 FEW030
Forecast period: 1500 UTC 05 October 2022 to 0000 UTC 06 October 2022
Forecast type: FROM: standard forecast or significant change
Winds: from the S (190 degrees) at 12 MPH (10 knots; 5.1 m/s)
Visibility: 6 or more miles (10+ km)
Ceiling: at least 12,000 feet AGL
Clouds: few clouds at 3000 feet AGL
Weather: no significant weather forecast for this period